Time;durP1;ratioP1;P1;durP2;ratioP2;P2;SDS_P1;SDS_P2;PMS_P1;PMS_P2;Temp;Humidity;BMP_temperature;BMP_pressure;BME280_temperature;BME280_humidity;BME280_pressure;Samples;Min_cycle;Max_cycle;Signal;HPM_P1;HPM_P2
2023/04/30 00:02:07;;;;;;;;;;;;;;;26.78;28.06;100447.72;5080017;28;1097;-24
2023/04/30 00:04:32;;;;;;;;;;;;;;;26.63;28.02;100445.03;5061520;28;1988;-23
2023/04/30 00:06:58;;;;;;;;;;;;;;;26.72;28.00;100451.19;5089777;28;1039;-25
2023/04/30 00:09:23;;;;;;;;;;;;;;;26.80;28.07;100447.53;5080446;28;1176;-23
2023/04/30 00:11:49;;;;;;;;;;;;;;;26.73;28.19;100445.59;5079378;28;1137;-23
2023/04/30 00:14:14;;;;;;;;;;;;;;;26.82;28.20;100448.19;5079435;28;1074;-23
2023/04/30 00:16:40;;;;;;;;;;;;;;;26.56;28.99;100453.03;5079481;28;1125;-24
2023/04/30 00:19:06;;;;;;;;;;;;;;;26.43;29.04;100451.00;5084530;28;1019;-23
2023/04/30 00:21:32;;;;;;;;;;;;;;;26.48;28.94;100445.88;5067458;28;1173;-22
2023/04/30 00:23:59;;;;;;;;;;;;;;;26.61;28.59;100447.09;5059952;28;1914;-24
2023/04/30 00:26:25;;;;;;;;;;;;;;;26.47;28.70;100444.22;5079420;28;1110;-22
2023/04/30 00:28:50;;;;;;;;;;;;;;;26.42;28.93;100441.25;5061060;28;1106;-24
2023/04/30 00:31:16;;;;;;;;;;;;;;;26.37;28.95;100440.97;5090577;28;1134;-23
2023/04/30 00:33:41;;;;;;;;;;;;;;;26.36;28.77;100442.81;5062400;28;2449;-25
2023/04/30 00:36:07;;;;;;;;;;;;;;;26.39;28.76;100441.63;5080862;28;1107;-24
2023/04/30 00:38:32;;;;;;;;;;;;;;;26.31;28.97;100441.69;5062557;28;1062;-24
2023/04/30 00:40:58;;;;;;;;;;;;;;;26.29;28.87;100448.06;5078986;28;1070;-23
2023/04/30 00:43:24;;;;;;;;;;;;;;;26.20;29.17;100445.66;5085598;28;1914;-24
2023/04/30 00:45:49;;;;;;;;;;;;;;;26.05;29.60;100446.47;5078975;28;1091;-23
2023/04/30 00:48:15;;;;;;;;;;;;;;;26.21;29.16;100445.47;5060634;28;1155;-23
2023/04/30 00:50:40;;;;;;;;;;;;;;;26.03;29.61;100440.41;5060362;28;1058;-23
2023/04/30 00:53:06;;;;;;;;;;;;;;;25.94;29.47;100438.84;5059801;28;1093;-23
2023/04/30 00:55:31;;;;;;;;;;;;;;;25.82;29.55;100441.13;5067476;28;871;-25
2023/04/30 00:57:57;;;;;;;;;;;;;;;25.79;29.78;100439.66;5059179;28;1218;-24
2023/04/30 01:00:22;;;;;;;;;;;;;;;25.80;29.79;100441.31;5060403;28;1122;-22
2023/04/30 01:02:48;;;;;;;;;;;;;;;25.89;29.29;100436.69;5060541;28;1102;-25
2023/04/30 01:05:14;;;;;;;;;;;;;;;26.34;27.83;100436.75;5078375;28;1984;-23
2023/04/30 01:07:45;;;;;;;;;;;;;;;26.62;27.25;100441.53;5068192;28;1209;-26
2023/04/30 01:10:13;;;;;;;;;;;;;;;26.60;28.22;100440.88;5060074;28;1170;-26
2023/04/30 01:12:42;;;;;;;;;;;;;;;27.08;27.13;100438.75;5060277;28;1134;-23
2023/04/30 01:15:09;;;;;;;;;;;;;;;26.74;27.99;100435.66;5060572;28;1135;-23
2023/04/30 01:17:46;;;;;;;;;;;;;;;26.57;27.61;100435.84;5060451;28;1155;-23
2023/04/30 01:20:12;;;;;;;;;;;;;;;26.88;27.33;100437.47;5047972;28;1031;-23
2023/04/30 01:22:41;;;;;;;;;;;;;;;27.07;26.73;100429.84;5060135;28;1167;-22
2023/04/30 01:25:12;;;;;;;;;;;;;;;26.74;27.61;100435.66;5060303;28;1909;-23
2023/04/30 01:27:56;;;;;;;;;;;;;;;26.72;27.36;100437.69;5039920;28;1092;-23
2023/04/30 01:30:22;;;;;;;;;;;;;;;26.88;27.31;100434.78;5075810;28;1143;-24
2023/04/30 01:32:47;;;;;;;;;;;;;;;27.20;26.77;100437.25;5048951;28;1293;-22
2023/04/30 01:35:13;;;;;;;;;;;;;;;27.37;26.94;100428.91;5057201;28;1142;-23
2023/04/30 01:37:44;;;;;;;;;;;;;;;26.49;27.67;100427.84;5052323;28;1178;-23
2023/04/30 01:40:10;;;;;;;;;;;;;;;26.93;27.56;100425.25;5058263;28;1267;-23
2023/04/30 01:42:37;;;;;;;;;;;;;;;27.12;26.73;100427.41;5078617;28;1014;-24
2023/04/30 01:45:16;;;;;;;;;;;;;;;27.41;26.42;100418.53;5040821;28;1906;-22
2023/04/30 01:47:47;;;;;;;;;;;;;;;26.80;27.30;100423.25;5042972;28;1163;-23
2023/04/30 01:50:22;;;;;;;;;;;;;;;26.55;27.47;100423.56;5059428;28;1070;-23
2023/04/30 01:52:52;;;;;;;;;;;;;;;27.00;27.10;100421.63;5090579;28;1051;-24
2023/04/30 01:55:23;;;;;;;;;;;;;;;27.27;26.78;100429.22;5077311;28;1154;-24
2023/04/30 01:57:56;;;;;;;;;;;;;;;27.25;26.31;100426.72;5059113;28;1452;-24
2023/04/30 02:00:22;;;;;;;;;;;;;;;26.50;27.56;100418.72;5059401;28;1198;-23
2023/04/30 02:02:48;;;;;;;;;;;;;;;26.94;27.17;100424.25;5076854;28;1043;-23
2023/04/30 02:05:14;;;;;;;;;;;;;;;27.08;26.68;100419.84;5076013;28;1898;-24
2023/04/30 02:07:40;;;;;;;;;;;;;;;27.41;26.53;100423.94;5080979;28;1093;-26
2023/04/30 02:10:07;;;;;;;;;;;;;;;27.01;26.80;100422.44;5059488;28;1199;-22
2023/04/30 02:12:33;;;;;;;;;;;;;;;26.57;27.45;100419.66;5058698;28;1964;-24
2023/04/30 02:14:58;;;;;;;;;;;;;;;27.05;26.63;100414.84;5059252;28;1240;-29
2023/04/30 02:17:24;;;;;;;;;;;;;;;27.26;26.21;100419.41;5064839;28;1314;-24
2023/04/30 02:19:49;;;;;;;;;;;;;;;27.53;25.84;100408.88;5059335;28;1204;-24
2023/04/30 02:22:15;;;;;;;;;;;;;;;26.92;26.76;100412.81;5078592;28;1102;-23
2023/04/30 02:24:40;;;;;;;;;;;;;;;26.49;27.62;100412.50;5058618;28;1971;-23
2023/04/30 02:27:06;;;;;;;;;;;;;;;27.06;26.90;100408.44;5059063;28;1106;-26
2023/04/30 02:29:32;;;;;;;;;;;;;;;27.33;26.38;100404.13;5076882;28;1075;-22
2023/04/30 02:31:57;;;;;;;;;;;;;;;27.54;25.55;100402.47;5080975;28;1095;-23
2023/04/30 02:34:23;;;;;;;;;;;;;;;26.86;27.32;100401.75;5058563;28;1083;-26
2023/04/30 02:36:48;;;;;;;;;;;;;;;27.04;26.37;100411.31;5074780;28;1178;-25
2023/04/30 02:39:14;;;;;;;;;;;;;;;27.17;26.88;100407.94;5059629;28;1203;-24
2023/04/30 02:41:39;;;;;;;;;;;;;;;27.30;26.78;100406.38;5074796;28;1179;-23
2023/04/30 02:44:05;;;;;;;;;;;;;;;27.24;26.20;100406.13;5086318;28;1918;-24
2023/04/30 02:46:31;;;;;;;;;;;;;;;26.93;27.06;100399.13;5078883;28;1055;-23
2023/04/30 02:48:56;;;;;;;;;;;;;;;26.77;26.65;100405.59;5052296;28;1066;-24
2023/04/30 02:51:22;;;;;;;;;;;;;;;27.17;26.70;100397.13;5074476;28;1090;-23
2023/04/30 02:53:48;;;;;;;;;;;;;;;27.49;26.17;100399.50;5058429;28;1158;-23
2023/04/30 02:56:13;;;;;;;;;;;;;;;27.20;26.40;100394.03;5081824;28;1248;-24
2023/04/30 02:58:39;;;;;;;;;;;;;;;26.86;27.33;100407.13;5076574;28;1038;-24
2023/04/30 03:01:05;;;;;;;;;;;;;;;27.00;26.43;100413.53;5058197;28;1366;-23
2023/04/30 03:03:31;;;;;;;;;;;;;;;27.35;26.36;100412.88;5076357;28;1910;-26
2023/04/30 03:05:58;;;;;;;;;;;;;;;27.39;26.34;100406.06;5076341;28;1094;-25
2023/04/30 03:08:24;;;;;;;;;;;;;;;26.64;27.64;100408.97;5076597;28;885;-23
2023/04/30 03:10:49;;;;;;;;;;;;;;;26.46;28.10;100406.66;5058340;28;1560;-25
2023/04/30 03:13:15;;;;;;;;;;;;;;;26.90;27.38;100408.44;5058096;28;1162;-24
2023/04/30 03:15:41;;;;;;;;;;;;;;;27.21;26.70;100406.50;5075672;28;1031;-24
2023/04/30 03:18:06;;;;;;;;;;;;;;;27.49;26.31;100391.41;5076277;28;1233;-24
2023/04/30 03:20:32;;;;;;;;;;;;;;;26.92;27.25;100402.84;5065560;28;1218;-23
2023/04/30 03:22:57;;;;;;;;;;;;;;;26.99;27.28;100409.16;5076220;28;1203;-23
2023/04/30 03:25:25;;;;;;;;;;;;;;;27.33;27.18;100412.22;5058755;28;1910;-25
2023/04/30 03:27:50;;;;;;;;;;;;;;;27.30;27.02;100409.06;5076521;28;1177;-23
2023/04/30 03:30:16;;;;;;;;;;;;;;;27.36;26.84;100411.03;5076508;28;1143;-22
2023/04/30 03:32:41;;;;;;;;;;;;;;;27.04;27.28;100413.19;5059029;28;1213;-23
2023/04/30 03:35:07;;;;;;;;;;;;;;;26.81;27.63;100414.16;5058289;28;1161;-25
2023/04/30 03:37:33;;;;;;;;;;;;;;;26.99;27.41;100425.34;5080060;28;1214;-23
2023/04/30 03:39:58;;;;;;;;;;;;;;;27.13;26.87;100422.81;5076350;28;1109;-23
2023/04/30 03:42:24;;;;;;;;;;;;;;;26.65;27.66;100418.72;5076413;28;1118;-23
2023/04/30 03:44:49;;;;;;;;;;;;;;;27.02;27.17;100416.06;5065880;28;1976;-24
2023/04/30 03:47:15;;;;;;;;;;;;;;;26.88;27.83;100418.59;5058232;28;1226;-24
2023/04/30 03:49:40;;;;;;;;;;;;;;;26.07;28.10;100422.88;5058331;28;1046;-24
2023/04/30 03:52:06;;;;;;;;;;;;;;;26.49;25.59;100422.47;5076061;28;1091;-28
2023/04/30 03:54:32;;;;;;;;;;;;;;;26.66;23.74;100431.16;5076193;28;1143;-30
2023/04/30 03:56:59;;;;;;;;;;;;;;;25.14;23.10;100429.13;5060007;28;1643;-25
2023/04/30 03:59:25;;;;;;;;;;;;;;;25.06;24.04;100430.84;5058102;28;1095;-26
2023/04/30 04:01:51;;;;;;;;;;;;;;;25.93;23.66;100435.28;5057875;28;1087;-25
2023/04/30 04:04:16;;;;;;;;;;;;;;;26.58;22.62;100436.66;5058011;28;1914;-26
2023/04/30 04:06:42;;;;;;;;;;;;;;;26.09;21.97;100436.97;5058231;28;1115;-25
2023/04/30 04:09:07;;;;;;;;;;;;;;;26.58;22.03;100440.22;5057572;28;1091;-25
2023/04/30 04:11:33;;;;;;;;;;;;;;;26.38;22.26;100435.38;5075517;28;1093;-28
2023/04/30 04:13:59;;;;;;;;;;;;;;;26.96;21.40;100444.63;5062664;28;1064;-26
2023/04/30 04:16:24;;;;;;;;;;;;;;;26.29;22.82;100437.28;5076007;28;1070;-25
2023/04/30 04:18:50;;;;;;;;;;;;;;;26.60;22.06;100435.47;5057887;28;1472;-28
2023/04/30 04:21:16;;;;;;;;;;;;;;;26.32;22.81;100440.66;5061211;28;1222;-24
2023/04/30 04:23:41;;;;;;;;;;;;;;;26.77;22.12;100444.22;5057682;28;1989;-26
2023/04/30 04:26:07;;;;;;;;;;;;;;;27.13;22.68;100442.56;5058090;28;1410;-26
2023/04/30 04:28:33;;;;;;;;;;;;;;;27.24;22.51;100443.91;5078547;28;1178;-24
2023/04/30 04:30:58;;;;;;;;;;;;;;;26.51;23.68;100444.66;5079761;28;1186;-24
2023/04/30 04:33:24;;;;;;;;;;;;;;;26.15;23.47;100444.34;5072564;28;1317;-26
2023/04/30 04:35:49;;;;;;;;;;;;;;;27.09;23.01;100445.84;5059521;28;1207;-25
2023/04/30 04:38:15;;;;;;;;;;;;;;;27.40;22.82;100447.41;5068651;28;1215;-25
2023/04/30 04:40:45;;;;;;;;;;;;;;;26.15;23.59;100443.50;5041286;28;1310;-25
2023/04/30 04:43:11;;;;;;;;;;;;;;;26.38;23.48;100439.94;5041460;28;1351;-25
2023/04/30 04:45:37;;;;;;;;;;;;;;;27.06;23.08;100441.66;5050833;28;1906;-25
2023/04/30 04:48:03;;;;;;;;;;;;;;;27.35;22.53;100447.16;5060568;28;1230;-28
2023/04/30 04:50:28;;;;;;;;;;;;;;;25.99;23.58;100439.94;5071340;28;1079;-25
2023/04/30 04:52:54;;;;;;;;;;;;;;;26.15;23.57;100441.66;5079122;28;1176;-25
2023/04/30 04:55:19;;;;;;;;;;;;;;;27.06;23.03;100443.53;5066779;28;762;-27
2023/04/30 04:57:45;;;;;;;;;;;;;;;27.29;22.57;100445.22;5069054;28;1171;-24
2023/04/30 05:00:12;;;;;;;;;;;;;;;26.43;24.02;100445.59;5079132;28;1146;-26
2023/04/30 05:02:37;;;;;;;;;;;;;;;26.12;23.91;100444.72;5079167;28;1101;-24
2023/04/30 05:05:03;;;;;;;;;;;;;;;26.96;23.46;100449.19;5078947;28;2047;-30
2023/04/30 05:07:28;;;;;;;;;;;;;;;27.28;23.46;100447.06;5060717;28;1189;-26
2023/04/30 05:09:54;;;;;;;;;;;;;;;26.58;25.06;100452.84;5070487;28;1409;-26
2023/04/30 05:12:20;;;;;;;;;;;;;;;26.70;25.23;100455.91;5058739;28;1254;-26
2023/04/30 05:14:46;;;;;;;;;;;;;;;27.08;24.72;100452.25;5058806;28;1171;-26
2023/04/30 05:17:11;;;;;;;;;;;;;;;27.04;25.07;100459.91;5058403;28;1371;-27
2023/04/30 05:19:37;;;;;;;;;;;;;;;26.76;25.48;100457.84;5058713;28;1266;-28
2023/04/30 05:22:03;;;;;;;;;;;;;;;26.35;26.13;100460.03;5059651;28;1445;-25
2023/04/30 05:24:28;;;;;;;;;;;;;;;26.39;26.08;100450.53;5058174;28;1977;-28
2023/04/30 05:26:54;;;;;;;;;;;;;;;26.49;26.20;100457.53;5058507;28;1262;-25
2023/04/30 05:29:20;;;;;;;;;;;;;;;26.35;26.03;100451.09;5058444;28;1262;-26
2023/04/30 05:31:45;;;;;;;;;;;;;;;26.28;26.60;100461.75;5072929;28;1147;-28
2023/04/30 05:34:11;;;;;;;;;;;;;;;26.32;26.72;100460.38;5074387;28;937;-25
2023/04/30 05:36:36;;;;;;;;;;;;;;;26.60;26.15;100459.75;5077501;28;1071;-26
2023/04/30 05:39:03;;;;;;;;;;;;;;;26.20;27.05;100454.59;5060202;28;1052;-28
2023/04/30 05:41:28;;;;;;;;;;;;;;;25.79;27.70;100464.72;5078154;28;1062;-25
2023/04/30 05:43:54;;;;;;;;;;;;;;;25.78;27.89;100454.13;5078092;28;1905;-27
2023/04/30 05:46:19;;;;;;;;;;;;;;;26.38;27.15;100459.66;5077351;28;880;-25
2023/04/30 05:48:45;;;;;;;;;;;;;;;26.03;27.68;100452.03;5078098;28;1002;-24
2023/04/30 05:51:10;;;;;;;;;;;;;;;25.97;27.90;100455.47;5077741;28;1054;-24
2023/04/30 05:53:36;;;;;;;;;;;;;;;25.88;27.80;100445.78;5078159;28;1126;-23
2023/04/30 05:56:01;;;;;;;;;;;;;;;26.28;27.44;100456.34;5077472;28;1162;-25
2023/04/30 05:58:27;;;;;;;;;;;;;;;26.84;27.08;100457.75;5085220;28;891;-27
2023/04/30 06:00:53;;;;;;;;;;;;;;;26.88;27.02;100455.53;5077504;28;1061;-27
2023/04/30 06:03:19;;;;;;;;;;;;;;;26.34;27.34;100460.22;5077562;28;1130;-26
2023/04/30 06:05:45;;;;;;;;;;;;;;;26.36;27.43;100461.69;5077625;28;1910;-26
2023/04/30 06:08:11;;;;;;;;;;;;;;;26.45;27.26;100467.84;5077169;28;1246;-25
2023/04/30 06:10:37;;;;;;;;;;;;;;;26.16;27.78;100464.03;5064047;28;917;-26
2023/04/30 06:13:03;;;;;;;;;;;;;;;25.99;28.30;100466.06;5066292;28;1035;-27
2023/04/30 06:15:28;;;;;;;;;;;;;;;26.00;27.96;100470.44;5059163;28;1134;-26
2023/04/30 06:17:54;;;;;;;;;;;;;;;26.16;27.85;100467.59;5077307;28;1107;-25
2023/04/30 06:20:19;;;;;;;;;;;;;;;26.28;28.11;100472.53;5077575;28;1094;-24
2023/04/30 06:22:45;;;;;;;;;;;;;;;26.53;27.65;100472.28;5085777;28;1239;-27
2023/04/30 06:25:11;;;;;;;;;;;;;;;26.08;28.29;100461.44;5077045;28;1898;-25
2023/04/30 06:27:36;;;;;;;;;;;;;;;26.29;28.03;100471.53;5077111;28;1137;-25
2023/04/30 06:30:02;;;;;;;;;;;;;;;25.60;29.08;100470.56;5076809;28;1102;-29
2023/04/30 06:32:27;;;;;;;;;;;;;;;26.24;28.12;100461.28;5077278;28;1142;-27
2023/04/30 06:34:53;;;;;;;;;;;;;;;26.21;28.36;100466.22;5064715;28;1032;-26
2023/04/30 06:37:19;;;;;;;;;;;;;;;26.24;27.99;100461.28;5068244;28;1119;-26
2023/04/30 06:39:44;;;;;;;;;;;;;;;26.14;28.31;100461.53;5076894;28;1058;-26
2023/04/30 06:42:10;;;;;;;;;;;;;;;26.25;27.97;100460.25;5076832;28;1107;-28
2023/04/30 06:44:35;;;;;;;;;;;;;;;26.14;28.42;100460.72;5078202;28;1977;-25
2023/04/30 06:47:01;;;;;;;;;;;;;;;25.87;28.90;100458.44;5060058;28;1158;-25
2023/04/30 06:49:27;;;;;;;;;;;;;;;26.34;28.39;100463.72;5076644;28;1194;-25
2023/04/30 06:51:54;;;;;;;;;;;;;;;26.04;28.42;100458.28;5076192;28;1074;-25
2023/04/30 06:54:21;;;;;;;;;;;;;;;26.31;28.25;100463.25;5076642;28;1146;-27
2023/04/30 06:56:47;;;;;;;;;;;;;;;25.76;29.15;100458.84;5068704;28;980;-25
2023/04/30 06:59:12;;;;;;;;;;;;;;;26.29;28.03;100461.56;5066840;28;940;-25
2023/04/30 07:01:38;;;;;;;;;;;;;;;26.30;28.02;100465.09;5076877;28;1146;-25
2023/04/30 07:04:03;;;;;;;;;;;;;;;26.25;27.99;100462.97;5076734;28;1901;-29
2023/04/30 07:06:29;;;;;;;;;;;;;;;26.40;28.01;100468.41;5058756;28;1135;-25
2023/04/30 07:08:54;;;;;;;;;;;;;;;26.11;28.19;100469.19;5060254;28;1072;-25
2023/04/30 07:11:20;;;;;;;;;;;;;;;26.26;28.23;100467.31;5075992;28;1079;-26
2023/04/30 07:13:45;;;;;;;;;;;;;;;26.16;28.08;100459.50;5056540;28;1207;-26
2023/04/30 07:16:11;;;;;;;;;;;;;;;26.56;27.60;100469.22;5056518;28;1281;-24
2023/04/30 07:18:37;;;;;;;;;;;;;;;26.20;27.86;100467.22;5069636;28;1337;-24
2023/04/30 07:21:02;;;;;;;;;;;;;;;26.44;28.03;100466.19;5064695;28;1051;-26
2023/04/30 07:23:28;;;;;;;;;;;;;;;26.25;28.03;100465.66;5087489;28;1189;-25
2023/04/30 07:25:53;;;;;;;;;;;;;;;26.36;28.38;100469.78;5055725;28;1934;-24
2023/04/30 07:28:19;;;;;;;;;;;;;;;26.32;27.86;100471.16;5072202;28;1130;-25
2023/04/30 07:30:44;;;;;;;;;;;;;;;26.73;27.72;100475.28;5075983;28;1232;-25
2023/04/30 07:33:11;;;;;;;;;;;;;;;26.28;28.47;100476.06;5075720;28;1068;-25
2023/04/30 07:35:36;;;;;;;;;;;;;;;26.47;27.88;100476.59;5077950;28;959;-27
2023/04/30 07:38:03;;;;;;;;;;;;;;;26.15;28.14;100475.88;5071984;28;1119;-26
2023/04/30 07:40:29;;;;;;;;;;;;;;;26.20;27.86;100476.16;5074475;28;1071;-24
2023/04/30 07:42:54;;;;;;;;;;;;;;;26.51;27.66;100477.88;5076042;28;1218;-26
2023/04/30 07:45:20;;;;;;;;;;;;;;;26.21;27.52;100463.53;5076288;28;1981;-26
2023/04/30 07:47:46;;;;;;;;;;;;;;;25.73;27.03;100464.59;5086030;28;1030;-26
2023/04/30 07:50:13;;;;;;;;;;;;;;;25.99;27.75;100463.38;5076196;28;1078;-25
2023/04/30 07:52:39;;;;;;;;;;;;;;;26.33;27.62;100461.22;5076053;28;1050;-27
2023/04/30 07:55:05;;;;;;;;;;;;;;;26.34;27.60;100461.03;5075730;28;1220;-24
2023/04/30 07:57:30;;;;;;;;;;;;;;;25.92;27.82;100461.41;5075206;28;1050;-26
2023/04/30 07:59:56;;;;;;;;;;;;;;;26.28;27.39;100459.91;5076635;28;1106;-27
2023/04/30 08:02:22;;;;;;;;;;;;;;;26.32;27.70;100454.13;5073275;28;1070;-26
2023/04/30 08:04:47;;;;;;;;;;;;;;;26.19;27.60;100468.25;5080284;28;2028;-26
2023/04/30 08:07:14;;;;;;;;;;;;;;;26.04;28.24;100463.69;5079860;28;1198;-27
2023/04/30 08:09:40;;;;;;;;;;;;;;;26.40;27.35;100462.16;5081740;28;1051;-27
2023/04/30 08:12:06;;;;;;;;;;;;;;;26.11;27.73;100464.59;5071618;28;1142;-27
2023/04/30 08:14:31;;;;;;;;;;;;;;;26.23;27.89;100461.44;5063212;28;1159;-26
2023/04/30 08:16:58;;;;;;;;;;;;;;;26.15;27.06;100459.69;5079617;28;1039;-26
2023/04/30 08:19:23;;;;;;;;;;;;;;;26.38;27.13;100459.66;5079637;28;1201;-24
2023/04/30 08:21:49;;;;;;;;;;;;;;;26.07;27.85;100457.06;5078061;28;1030;-24
2023/04/30 08:24:14;;;;;;;;;;;;;;;25.91;28.15;100454.34;5041477;28;1914;-25
2023/04/30 08:26:40;;;;;;;;;;;;;;;26.35;27.64;100467.28;5059549;28;1387;-27
2023/04/30 08:29:07;;;;;;;;;;;;;;;26.34;27.36;100452.94;5059750;28;1195;-27
2023/04/30 08:31:33;;;;;;;;;;;;;;;26.26;26.60;100453.00;5062000;28;1251;-24
2023/04/30 08:33:58;;;;;;;;;;;;;;;26.40;26.68;100452.22;5068521;28;1372;-28
2023/04/30 08:36:24;;;;;;;;;;;;;;;26.56;27.05;100446.81;5087625;28;1069;-28
2023/04/30 08:38:49;;;;;;;;;;;;;;;26.28;27.29;100446.41;5079548;28;1109;-24
2023/04/30 08:41:15;;;;;;;;;;;;;;;26.32;27.02;100446.03;5058863;28;1294;-25
2023/04/30 08:43:40;;;;;;;;;;;;;;;26.32;27.40;100433.41;5059452;28;1910;-28
2023/04/30 08:46:06;;;;;;;;;;;;;;;26.50;27.47;100443.84;5063902;28;1239;-24
2023/04/30 08:48:32;;;;;;;;;;;;;;;26.41;27.24;100444.94;5060844;28;1258;-25
2023/04/30 08:51:01;;;;;;;;;;;;;;;26.44;27.28;100450.00;5066737;28;1214;-25
2023/04/30 08:53:26;;;;;;;;;;;;;;;26.24;27.97;100445.09;5065185;28;1258;-25
2023/04/30 08:55:52;;;;;;;;;;;;;;;26.44;27.52;100444.59;5079363;28;1095;-24
2023/04/30 08:58:18;;;;;;;;;;;;;;;26.29;27.79;100444.56;5082709;28;1071;-25
2023/04/30 09:00:44;;;;;;;;;;;;;;;26.64;27.32;100452.94;5072200;28;1146;-28
2023/04/30 09:03:09;;;;;;;;;;;;;;;26.70;27.49;100445.13;5061152;28;1130;-24
2023/04/30 09:05:35;;;;;;;;;;;;;;;26.49;27.89;100444.03;5078526;28;1898;-25
2023/04/30 09:08:01;;;;;;;;;;;;;;;26.32;27.96;100437.94;5078633;28;1129;-25
2023/04/30 09:10:26;;;;;;;;;;;;;;;26.53;27.68;100434.53;5082487;28;1228;-28
2023/04/30 09:13:02;;;;;;;;;;;;;;;26.32;28.07;100437.94;5078289;28;1173;-25
2023/04/30 09:15:27;;;;;;;;;;;;;;;26.27;27.85;100433.13;5078333;28;1198;-25
2023/04/30 09:18:10;;;;;;;;;;;;;;;26.26;28.17;100439.50;5078307;28;1031;-25
2023/04/30 09:20:35;;;;;;;;;;;;;;;26.60;27.76;100430.06;5078655;28;1174;-26
2023/04/30 09:23:08;;;;;;;;;;;;;;;26.64;27.96;100425.97;5086546;28;1184;-24
2023/04/30 09:25:40;;;;;;;;;;;;;;;26.21;28.46;100428.47;5060913;28;1977;-26
2023/04/30 09:28:11;;;;;;;;;;;;;;;26.31;28.36;100428.19;5074318;28;1032;-25
2023/04/30 09:30:37;;;;;;;;;;;;;;;26.23;28.18;100419.16;5077757;28;1067;-25
2023/04/30 09:33:03;;;;;;;;;;;;;;;26.49;28.25;100419.75;5078091;28;1086;-25
2023/04/30 09:35:29;;;;;;;;;;;;;;;26.46;28.04;100412.88;5079642;28;859;-25
2023/04/30 09:37:55;;;;;;;;;;;;;;;26.41;28.35;100405.34;5061793;28;1054;-30
2023/04/30 09:40:31;;;;;;;;;;;;;;;26.22;28.41;100412.09;5067785;28;1031;-27
2023/04/30 09:42:57;;;;;;;;;;;;;;;26.16;28.05;100405.59;5078020;28;1101;-24
2023/04/30 09:45:23;;;;;;;;;;;;;;;26.39;28.15;100410.06;5078034;28;1963;-26
2023/04/30 09:47:48;;;;;;;;;;;;;;;26.47;28.38;100405.63;5082176;28;1078;-25
2023/04/30 09:50:14;;;;;;;;;;;;;;;26.46;28.34;100407.47;5051759;28;1434;-26
2023/04/30 09:52:39;;;;;;;;;;;;;;;26.27;28.11;100398.91;5060500;28;1131;-28
2023/04/30 09:55:06;;;;;;;;;;;;;;;26.25;27.94;100405.50;5060057;28;1565;-25
2023/04/30 09:57:35;;;;;;;;;;;;;;;26.56;27.93;100406.38;5077151;28;1066;-25
2023/04/30 10:00:00;;;;;;;;;;;;;;;26.63;28.10;100401.88;5080240;28;926;-24
2023/04/30 10:02:26;;;;;;;;;;;;;;;26.48;28.43;100399.19;5060025;28;1221;-25
2023/04/30 10:04:55;;;;;;;;;;;;;;;26.17;28.61;100401.84;5077664;28;1905;-24
2023/04/30 10:07:20;;;;;;;;;;;;;;;26.57;28.17;100408.88;5077386;28;1085;-25
2023/04/30 10:09:49;;;;;;;;;;;;;;;26.49;28.38;100398.19;5059970;28;1154;-25
2023/04/30 10:12:17;;;;;;;;;;;;;;;26.20;28.58;100406.06;5089825;28;1050;-25
2023/04/30 10:14:44;;;;;;;;;;;;;;;26.29;28.48;100404.13;5059935;28;1126;-27
2023/04/30 10:17:13;;;;;;;;;;;;;;;26.20;28.69;100405.22;5059449;28;1520;-28
2023/04/30 10:19:42;;;;;;;;;;;;;;;26.45;28.44;100404.97;5077840;28;1115;-24
2023/04/30 10:22:07;;;;;;;;;;;;;;;26.59;28.43;100401.41;5057163;28;1131;-25
2023/04/30 10:24:33;;;;;;;;;;;;;;;26.68;28.07;100406.69;5080419;28;1961;-25
2023/04/30 10:26:58;;;;;;;;;;;;;;;26.59;28.12;100403.28;5059099;28;1198;-26
2023/04/30 10:29:24;;;;;;;;;;;;;;;26.47;27.92;100397.53;5077421;28;1205;-28
2023/04/30 10:31:51;;;;;;;;;;;;;;;26.21;28.41;100396.94;5077081;28;1133;-27
2023/04/30 10:34:35;;;;;;;;;;;;;;;26.45;28.42;100403.09;5076980;28;1038;-25
2023/04/30 10:37:24;;;;;;;;;;;;;;;26.76;28.28;100393.94;5073414;28;1020;-25
2023/04/30 10:39:50;;;;;;;;;;;;;;;26.90;28.04;100400.34;5039501;28;1207;-24
2023/04/30 10:42:15;;;;;;;;;;;;;;;26.64;28.14;100401.69;5058794;28;1210;-26
2023/04/30 10:44:41;;;;;;;;;;;;;;;26.50;28.52;100399.84;5058867;28;1985;-25
2023/04/30 10:47:07;;;;;;;;;;;;;;;26.85;27.64;100404.63;5076569;28;1177;-33
2023/04/30 10:49:32;;;;;;;;;;;;;;;26.49;27.83;100399.00;5058052;28;1043;-27
2023/04/30 10:51:59;;;;;;;;;;;;;;;26.48;27.87;100396.50;5076915;28;1129;-23
2023/04/30 10:54:25;;;;;;;;;;;;;;;26.64;27.86;100384.69;5076660;28;1050;-25
2023/04/30 10:56:51;;;;;;;;;;;;;;;26.49;28.92;100392.78;5077066;28;1147;-24
2023/04/30 10:59:17;;;;;;;;;;;;;;;26.49;29.37;100396.31;5077888;28;1059;-25
2023/04/30 11:01:58;;;;;;;;;;;;;;;26.61;27.92;100395.84;5059108;28;1071;-24
2023/04/30 11:04:24;;;;;;;;;;;;;;;26.63;28.26;100400.03;5076334;28;1965;-27
2023/04/30 11:06:53;;;;;;;;;;;;;;;26.62;27.82;100403.75;5076841;28;1114;-26
2023/04/30 11:09:18;;;;;;;;;;;;;;;26.57;27.82;100394.53;5076696;28;1210;-27
2023/04/30 11:11:44;;;;;;;;;;;;;;;26.75;28.49;100396.84;5076748;28;1131;-26
2023/04/30 11:14:13;;;;;;;;;;;;;;;26.70;28.20;100393.88;5076232;28;1054;-25
2023/04/30 11:16:39;;;;;;;;;;;;;;;26.47;28.29;100395.69;5058272;28;1222;-23
2023/04/30 11:19:05;;;;;;;;;;;;;;;26.31;28.51;100383.16;5075843;28;1038;-24
2023/04/30 11:21:32;;;;;;;;;;;;;;;26.36;28.89;100380.78;5076176;28;1154;-25
2023/04/30 11:24:02;;;;;;;;;;;;;;;26.51;28.84;100388.88;5075783;28;1906;-23
2023/04/30 11:26:27;;;;;;;;;;;;;;;26.68;28.42;100388.66;5076771;28;1070;-24
2023/04/30 11:28:53;;;;;;;;;;;;;;;26.44;28.76;100382.56;5069642;28;1110;-24
2023/04/30 11:31:18;;;;;;;;;;;;;;;26.27;28.56;100377.34;5056518;28;1144;-25
2023/04/30 11:33:44;;;;;;;;;;;;;;;26.32;28.30;100389.41;5041675;28;1262;-25
2023/04/30 11:36:09;;;;;;;;;;;;;;;26.38;28.58;100392.22;5030837;28;1127;-26
2023/04/30 11:38:35;;;;;;;;;;;;;;;26.75;28.32;100381.50;5065024;28;1307;-25
2023/04/30 11:41:01;;;;;;;;;;;;;;;26.57;28.72;100389.16;5076071;28;1213;-26
2023/04/30 11:43:27;;;;;;;;;;;;;;;26.62;28.23;100374.06;5076282;28;1214;-24
2023/04/30 11:46:11;;;;;;;;;;;;;;;26.23;28.35;100377.88;5076033;28;1889;-26
2023/04/30 11:48:38;;;;;;;;;;;;;;;26.41;28.86;100372.97;5064444;28;963;-24
2023/04/30 11:51:19;;;;;;;;;;;;;;;26.61;28.69;100371.56;5056943;28;1223;-26
2023/04/30 11:53:48;;;;;;;;;;;;;;;26.67;28.68;100381.59;5070590;28;1119;-26
2023/04/30 11:56:16;;;;;;;;;;;;;;;26.73;28.46;100367.34;5056274;28;1242;-26
2023/04/30 11:58:42;;;;;;;;;;;;;;;26.58;27.93;100367.38;5076086;28;1206;-26
2023/04/30 12:01:10;;;;;;;;;;;;;;;26.25;28.67;100378.53;5084831;28;1122;-25
2023/04/30 12:03:40;;;;;;;;;;;;;;;26.36;28.17;100364.59;5065961;28;1131;-26
2023/04/30 12:06:06;;;;;;;;;;;;;;;26.37;28.43;100357.38;5065686;28;1138;-25
2023/04/30 12:08:32;;;;;;;;;;;;;;;26.27;28.51;100358.47;5038188;28;1302;-25
2023/04/30 12:10:57;;;;;;;;;;;;;;;26.30;28.68;100370.72;5055686;28;1296;-25
2023/04/30 12:13:22;;;;;;;;;;;;;;;26.40;28.23;100346.19;5054867;28;973;-28
2023/04/30 12:15:58;;;;;;;;;;;;;;;26.32;28.72;100362.44;5071439;28;1048;-25
2023/04/30 12:18:24;;;;;;;;;;;;;;;26.46;28.44;100358.09;5062863;28;1199;-26
2023/04/30 12:20:49;;;;;;;;;;;;;;;26.81;28.48;100358.28;5075266;28;1055;-25
2023/04/30 12:23:15;;;;;;;;;;;;;;;26.70;28.15;100356.94;5076015;28;1160;-25
2023/04/30 12:25:43;;;;;;;;;;;;;;;26.43;28.57;100347.66;5085903;28;1976;-25
2023/04/30 12:28:09;;;;;;;;;;;;;;;26.34;28.29;100363.13;5064584;28;1047;-24
2023/04/30 12:30:35;;;;;;;;;;;;;;;26.52;28.29;100360.03;5087780;28;1466;-27
2023/04/30 12:33:02;;;;;;;;;;;;;;;26.71;28.55;100355.09;5057566;28;1185;-25
2023/04/30 12:35:28;;;;;;;;;;;;;;;26.81;28.54;100358.28;5058876;28;1134;-25
2023/04/30 12:38:00;;;;;;;;;;;;;;;26.40;28.63;100359.69;5078495;28;924;-25
2023/04/30 12:40:26;;;;;;;;;;;;;;;26.36;28.30;100356.50;5075285;28;1087;-27
2023/04/30 12:42:58;;;;;;;;;;;;;;;26.53;28.19;100353.59;5075399;28;1141;-26
2023/04/30 12:45:43;;;;;;;;;;;;;;;26.52;28.38;100352.78;5075824;28;1980;-29